Time;durP1;ratioP1;P1;durP2;ratioP2;P2;SDS_P1;SDS_P2;PMS_P1;PMS_P2;Temp;Humidity;BMP_temperature;BMP_pressure;BME280_temperature;BME280_humidity;BME280_pressure;Samples;Min_cycle;Max_cycle;Signal;HPM_P1;HPM_P2
2022/08/13 00:02:16;;;;;;;4.70;2.90;;;;;;;;;;5028741;28;20049;-65
2022/08/13 00:05:02;;;;;;;4.18;3.10;;;;;;;;;;5027914;28;20040;-65
2022/08/13 00:07:29;;;;;;;6.38;2.83;;;;;;;;;;5028900;28;20091;-65
2022/08/13 00:09:55;;;;;;;6.75;2.78;;;;;;;;;;5029805;28;20045;-65
2022/08/13 00:15:15;;;;;;;4.90;3.28;;;;;;;;;;5030014;28;20048;-65
2022/08/13 00:17:42;;;;;;;5.30;3.50;;;;;;;;;;5029375;28;20095;-65
2022/08/13 00:20:09;;;;;;;6.03;3.67;;;;;;;;;;5028199;28;20025;-65
2022/08/13 00:22:35;;;;;;;7.68;3.20;;;;;;;;;;5030223;28;20083;-65
2022/08/13 00:25:04;;;;;;;4.82;3.20;;;;;;;;;;5030458;28;20032;-65
2022/08/13 00:27:30;;;;;;;5.22;2.42;;;;;;;;;;5029569;28;20049;-65
2022/08/13 00:29:56;;;;;;;5.97;2.85;;;;;;;;;;5049472;28;20029;-65
2022/08/13 00:32:29;;;;;;;6.50;2.83;;;;;;;;;;5035033;28;20040;-65
2022/08/13 00:34:56;;;;;;;4.15;2.83;;;;;;;;;;5031078;28;20037;-65
2022/08/13 00:37:22;;;;;;;6.15;2.80;;;;;;;;;;5029569;28;20060;-65
2022/08/13 00:39:47;;;;;;;5.22;2.92;;;;;;;;;;5030164;28;20120;-65
2022/08/13 00:42:20;;;;;;;8.13;3.45;;;;;;;;;;5033136;28;20136;-65
2022/08/13 00:44:45;;;;;;;6.15;3.25;;;;;;;;;;5029410;28;20144;-65
2022/08/13 00:49:54;;;;;;;3.63;2.70;;;;;;;;;;5029716;28;20068;-65
2022/08/13 00:52:19;;;;;;;4.55;2.92;;;;;;;;;;5027859;28;20053;-65
2022/08/13 00:54:46;;;;;;;4.72;2.92;;;;;;;;;;5028553;28;20157;-65
2022/08/13 00:57:12;;;;;;;4.32;3.05;;;;;;;;;;5033341;28;20124;-65
2022/08/13 00:59:37;;;;;;;4.07;2.67;;;;;;;;;;5025626;28;20117;-65
2022/08/13 01:02:04;;;;;;;4.80;2.72;;;;;;;;;;5019811;28;20026;-65
2022/08/13 01:04:31;;;;;;;6.10;3.00;;;;;;;;;;5030015;28;20053;-65
2022/08/13 01:06:59;;;;;;;4.65;2.72;;;;;;;;;;5028886;28;20033;-65
2022/08/13 01:09:32;;;;;;;4.80;2.97;;;;;;;;;;5028936;28;20034;-65
2022/08/13 01:11:59;;;;;;;4.13;2.58;;;;;;;;;;5028521;28;20049;-65
2022/08/13 01:14:32;;;;;;;3.95;2.65;;;;;;;;;;5028651;28;20043;-65
2022/08/13 01:17:00;;;;;;;4.85;2.97;;;;;;;;;;5028440;28;20028;-65
2022/08/13 01:19:26;;;;;;;3.10;2.80;;;;;;;;;;5008387;28;20507;-65
2022/08/13 01:21:52;;;;;;;6.22;2.80;;;;;;;;;;5018644;28;20037;-65
2022/08/13 01:24:17;;;;;;;4.13;2.95;;;;;;;;;;5027159;28;20064;-65
2022/08/13 01:26:43;;;;;;;7.32;3.03;;;;;;;;;;5027765;28;20605;-65
2022/08/13 01:29:09;;;;;;;4.57;2.80;;;;;;;;;;5026083;28;20108;-65
2022/08/13 01:31:34;;;;;;;5.18;2.70;;;;;;;;;;5026637;28;20029;-65
2022/08/13 01:34:01;;;;;;;3.70;2.97;;;;;;;;;;5028399;28;20048;-65
2022/08/13 01:36:28;;;;;;;4.38;2.97;;;;;;;;;;5028140;28;20091;-65
2022/08/13 01:38:53;;;;;;;4.40;3.05;;;;;;;;;;5027653;28;20045;-65
2022/08/13 01:41:19;;;;;;;4.80;2.65;;;;;;;;;;5017607;28;20509;-65
2022/08/13 01:43:46;;;;;;;4.45;2.78;;;;;;;;;;5028196;28;20040;-65
2022/08/13 01:46:11;;;;;;;5.05;3.10;;;;;;;;;;5028219;28;20133;-65
2022/08/13 01:51:33;;;;;;;7.82;3.03;;;;;;;;;;5027963;28;20132;-65
2022/08/13 01:53:59;;;;;;;4.97;2.97;;;;;;;;;;5034252;28;20038;-65
2022/08/13 01:56:28;;;;;;;5.32;2.60;;;;;;;;;;5020053;28;20072;-65
2022/08/13 01:58:57;;;;;;;3.97;2.90;;;;;;;;;;5029188;28;20092;-65
2022/08/13 02:01:26;;;;;;;3.53;2.67;;;;;;;;;;5027932;28;20052;-65
2022/08/13 02:03:56;;;;;;;4.25;2.60;;;;;;;;;;5023364;28;20053;-65
2022/08/13 02:06:28;;;;;;;4.93;2.70;;;;;;;;;;5022576;28;20037;-65
2022/08/13 02:09:03;;;;;;;4.07;2.95;;;;;;;;;;5025500;28;20399;-65
2022/08/13 02:11:33;;;;;;;10.90;3.25;;;;;;;;;;5026518;28;20412;-65
2022/08/13 02:14:00;;;;;;;3.50;2.80;;;;;;;;;;5026783;28;20168;-65
2022/08/13 02:16:35;;;;;;;5.50;2.92;;;;;;;;;;5030116;28;20126;-65
2022/08/13 02:19:03;;;;;;;8.98;2.85;;;;;;;;;;5031175;28;20759;-65
2022/08/13 02:21:32;;;;;;;5.43;2.85;;;;;;;;;;5027104;28;20041;-65
2022/08/13 02:23:59;;;;;;;5.97;3.10;;;;;;;;;;5027700;28;20136;-65
2022/08/13 02:26:29;;;;;;;3.33;2.25;;;;;;;;;;5027852;28;20088;-65
2022/08/13 02:28:57;;;;;;;3.80;2.50;;;;;;;;;;5026633;28;20025;-65
2022/08/13 02:31:22;;;;;;;7.15;2.83;;;;;;;;;;5033237;28;20411;-65
2022/08/13 02:33:48;;;;;;;8.05;3.05;;;;;;;;;;5026508;28;20033;-65
2022/08/13 02:36:15;;;;;;;6.22;2.72;;;;;;;;;;5027388;28;20507;-65
2022/08/13 02:38:42;;;;;;;4.15;2.60;;;;;;;;;;5029931;28;20041;-65
2022/08/13 02:43:53;;;;;;;4.15;2.92;;;;;;;;;;5030241;28;20206;-65
2022/08/13 02:46:21;;;;;;;3.40;2.65;;;;;;;;;;5019920;28;20507;-65
2022/08/13 02:48:49;;;;;;;4.40;2.80;;;;;;;;;;5027837;28;20087;-65
2022/08/13 02:51:14;;;;;;;4.80;2.83;;;;;;;;;;5028214;28;20038;-65
2022/08/13 02:53:41;;;;;;;3.83;2.83;;;;;;;;;;5027023;28;20041;-65
2022/08/13 02:56:08;;;;;;;3.53;2.60;;;;;;;;;;5027583;28;20049;-64
2022/08/13 02:58:34;;;;;;;4.40;2.78;;;;;;;;;;5022436;28;20018;-65
2022/08/13 03:01:02;;;;;;;3.85;2.83;;;;;;;;;;5026933;28;20060;-65
2022/08/13 03:03:28;;;;;;;5.10;3.08;;;;;;;;;;5027206;28;20044;-65
2022/08/13 03:05:53;;;;;;;6.28;2.63;;;;;;;;;;5027161;28;20037;-65
2022/08/13 03:08:19;;;;;;;4.57;2.97;;;;;;;;;;5027091;28;20534;-65
2022/08/13 03:10:44;;;;;;;3.63;2.42;;;;;;;;;;5028213;28;20029;-65
2022/08/13 03:13:15;;;;;;;3.83;2.60;;;;;;;;;;5027425;28;20057;-65
2022/08/13 03:15:43;;;;;;;5.00;2.78;;;;;;;;;;5027000;28;20470;-65
2022/08/13 03:18:09;;;;;;;5.97;3.20;;;;;;;;;;5028666;28;20064;-65
2022/08/13 03:20:34;;;;;;;6.60;3.15;;;;;;;;;;5031082;28;20033;-65
2022/08/13 03:23:01;;;;;;;5.38;3.03;;;;;;;;;;5036255;28;20412;-65
2022/08/13 03:25:29;;;;;;;5.18;3.30;;;;;;;;;;5030610;28;20048;-65
2022/08/13 03:27:57;;;;;;;5.85;2.55;;;;;;;;;;5030742;28;20037;-65
2022/08/13 03:30:23;;;;;;;3.63;2.50;;;;;;;;;;5030803;28;20064;-65
2022/08/13 03:32:50;;;;;;;4.50;3.13;;;;;;;;;;5030839;28;20057;-65
2022/08/13 03:35:18;;;;;;;3.50;2.55;;;;;;;;;;5028810;28;20021;-64
2022/08/13 03:37:46;;;;;;;3.95;2.67;;;;;;;;;;5029685;28;20022;-65
2022/08/13 03:40:13;;;;;;;8.52;3.20;;;;;;;;;;5030354;28;20506;-64
2022/08/13 03:42:42;;;;;;;4.72;2.67;;;;;;;;;;5030960;28;20048;-65
2022/08/13 03:45:09;;;;;;;4.65;3.10;;;;;;;;;;5028767;28;20104;-65
2022/08/13 03:47:35;;;;;;;4.80;2.88;;;;;;;;;;5030629;28;20057;-65
2022/08/13 03:50:03;;;;;;;4.75;2.60;;;;;;;;;;5030587;28;20017;-65
2022/08/13 03:52:30;;;;;;;4.18;2.88;;;;;;;;;;5030306;28;20053;-65
2022/08/13 03:54:57;;;;;;;4.43;3.20;;;;;;;;;;5027116;28;20053;-65
2022/08/13 03:57:22;;;;;;;5.53;3.00;;;;;;;;;;5020608;28;20029;-65
2022/08/13 03:59:49;;;;;;;3.67;2.92;;;;;;;;;;5023162;28;20091;-65
2022/08/13 04:02:16;;;;;;;5.55;2.95;;;;;;;;;;5030896;28;20029;-65
2022/08/13 04:04:50;;;;;;;7.38;3.15;;;;;;;;;;5050292;28;20029;-65
2022/08/13 04:07:17;;;;;;;7.28;2.85;;;;;;;;;;5034101;28;20081;-65
2022/08/13 04:09:44;;;;;;;6.82;3.45;;;;;;;;;;5030010;28;20038;-65
2022/08/13 04:12:11;;;;;;;7.65;3.20;;;;;;;;;;5029919;28;20041;-65
2022/08/13 04:14:39;;;;;;;5.38;2.97;;;;;;;;;;5022685;28;20050;-65
2022/08/13 04:17:05;;;;;;;5.30;2.83;;;;;;;;;;5030173;28;20030;-65
2022/08/13 04:19:33;;;;;;;4.38;3.10;;;;;;;;;;5029773;28;20125;-65
2022/08/13 04:21:58;;;;;;;5.47;3.13;;;;;;;;;;5029837;28;20034;-65
2022/08/13 04:24:24;;;;;;;6.28;3.05;;;;;;;;;;5029788;28;20037;-66
2022/08/13 04:26:49;;;;;;;4.63;2.42;;;;;;;;;;5029752;28;20495;-65
2022/08/13 04:29:14;;;;;;;7.32;2.90;;;;;;;;;;5029464;28;20029;-64
2022/08/13 04:31:40;;;;;;;8.20;3.38;;;;;;;;;;5028347;28;20165;-65
2022/08/13 04:34:05;;;;;;;9.18;3.22;;;;;;;;;;5027682;28;20083;-65
2022/08/13 04:36:30;;;;;;;7.88;3.40;;;;;;;;;;5029475;28;20041;-65
2022/08/13 04:38:56;;;;;;;5.65;2.97;;;;;;;;;;5026504;28;20684;-65
2022/08/13 04:41:22;;;;;;;4.93;2.95;;;;;;;;;;5032129;28;20070;-65
2022/08/13 04:43:47;;;;;;;9.52;2.90;;;;;;;;;;5029550;28;20063;-65
2022/08/13 04:46:12;;;;;;;5.82;2.97;;;;;;;;;;5026896;28;20573;-65
2022/08/13 04:48:38;;;;;;;6.97;3.00;;;;;;;;;;5028952;28;20491;-65
2022/08/13 04:51:05;;;;;;;6.65;3.40;;;;;;;;;;5029338;28;20081;-65
2022/08/13 04:53:33;;;;;;;5.10;3.30;;;;;;;;;;5029281;28;20044;-65
2022/08/13 04:55:59;;;;;;;10.88;3.80;;;;;;;;;;5029200;28;20621;-66
2022/08/13 04:58:35;;;;;;;9.65;3.55;;;;;;;;;;5019632;28;20030;-65
2022/08/13 05:01:09;;;;;;;9.05;3.22;;;;;;;;;;5028617;28;20034;-65
2022/08/13 05:03:39;;;;;;;6.97;3.42;;;;;;;;;;5039425;28;20037;-65
2022/08/13 05:06:06;;;;;;;4.75;2.88;;;;;;;;;;5048740;28;20064;-67
2022/08/13 05:08:32;;;;;;;7.38;3.45;;;;;;;;;;5048773;28;20052;-67
2022/08/13 05:10:59;;;;;;;7.85;3.70;;;;;;;;;;5029353;28;20022;-68
2022/08/13 05:13:35;;;;;;;7.38;3.80;;;;;;;;;;5032145;28;20029;-69
2022/08/13 05:16:03;;;;;;;8.57;3.85;;;;;;;;;;5028901;28;20084;-68
2022/08/13 05:18:31;;;;;;;6.28;3.55;;;;;;;;;;5028014;28;20530;-68
2022/08/13 05:21:00;;;;;;;9.43;3.65;;;;;;;;;;5028989;28;20038;-68
2022/08/13 05:23:25;;;;;;;7.22;3.45;;;;;;;;;;5028450;28;20115;-67
2022/08/13 05:25:52;;;;;;;5.25;3.45;;;;;;;;;;5028746;28;20029;-68
2022/08/13 05:28:18;;;;;;;6.65;3.00;;;;;;;;;;5028658;28;20462;-68
2022/08/13 05:30:46;;;;;;;7.63;3.20;;;;;;;;;;5028513;28;20510;-68
2022/08/13 05:33:18;;;;;;;6.40;3.38;;;;;;;;;;5028093;28;20038;-68
2022/08/13 05:35:48;;;;;;;6.93;3.45;;;;;;;;;;5028653;28;20060;-68
2022/08/13 05:38:15;;;;;;;6.82;3.35;;;;;;;;;;5028129;28;20024;-68
2022/08/13 05:40:41;;;;;;;7.22;3.75;;;;;;;;;;5025345;28;20580;-68
2022/08/13 05:43:17;;;;;;;8.50;3.50;;;;;;;;;;5027064;28;20041;-68
2022/08/13 05:45:46;;;;;;;7.20;3.30;;;;;;;;;;5028284;28;20034;-68
2022/08/13 05:48:12;;;;;;;6.90;3.45;;;;;;;;;;5026345;28;20113;-67
2022/08/13 05:50:38;;;;;;;6.13;3.08;;;;;;;;;;5018968;28;20041;-68
2022/08/13 05:53:09;;;;;;;6.85;3.33;;;;;;;;;;5023515;28;20052;-68
2022/08/13 05:55:37;;;;;;;5.13;2.97;;;;;;;;;;5026756;28;20057;-67
2022/08/13 05:58:04;;;;;;;5.57;3.58;;;;;;;;;;5030243;28;20029;-68
2022/08/13 06:03:24;;;;;;;7.72;3.33;;;;;;;;;;5029097;28;20083;-68
2022/08/13 06:05:53;;;;;;;5.30;3.20;;;;;;;;;;5028023;28;20451;-68
2022/08/13 06:08:24;;;;;;;6.70;3.47;;;;;;;;;;5028196;28;20048;-68
2022/08/13 06:10:49;;;;;;;5.30;3.22;;;;;;;;;;5024581;28;20083;-70
2022/08/13 06:13:16;;;;;;;8.35;3.58;;;;;;;;;;5022450;28;20038;-68
2022/08/13 06:15:43;;;;;;;5.43;3.10;;;;;;;;;;5014177;28;20045;-68
2022/08/13 06:18:11;;;;;;;7.28;3.67;;;;;;;;;;5027391;28;20029;-68
2022/08/13 06:20:36;;;;;;;5.40;3.13;;;;;;;;;;5026982;28;20041;-67
2022/08/13 06:23:03;;;;;;;5.10;2.88;;;;;;;;;;5027530;28;20387;-67
2022/08/13 06:25:29;;;;;;;7.07;3.85;;;;;;;;;;5021200;28;20061;-67
2022/08/13 06:27:55;;;;;;;7.57;3.10;;;;;;;;;;5022848;28;20038;-68
2022/08/13 06:30:20;;;;;;;5.00;2.85;;;;;;;;;;5026863;28;20060;-68
2022/08/13 06:32:46;;;;;;;5.95;3.20;;;;;;;;;;5026210;28;20468;-67
2022/08/13 06:35:11;;;;;;;7.55;2.88;;;;;;;;;;5027184;28;20029;-67
2022/08/13 06:37:42;;;;;;;4.68;3.10;;;;;;;;;;5028506;28;20014;-67
2022/08/13 06:40:10;;;;;;;7.78;3.20;;;;;;;;;;5026629;28;20042;-67
2022/08/13 06:42:36;;;;;;;6.25;2.85;;;;;;;;;;5026525;28;20521;-67
2022/08/13 06:45:02;;;;;;;3.97;2.90;;;;;;;;;;5026996;28;20033;-68
2022/08/13 06:47:31;;;;;;;5.85;2.92;;;;;;;;;;5012396;28;20042;-67
2022/08/13 06:49:59;;;;;;;4.57;2.60;;;;;;;;;;5011524;28;20029;-68
2022/08/13 06:52:26;;;;;;;6.45;2.67;;;;;;;;;;5017707;28;20124;-67
2022/08/13 06:54:51;;;;;;;4.68;2.88;;;;;;;;;;5027272;28;20052;-68
2022/08/13 06:57:19;;;;;;;4.05;2.65;;;;;;;;;;5021703;28;20029;-67
2022/08/13 06:59:46;;;;;;;5.88;2.70;;;;;;;;;;5028937;28;20053;-68
2022/08/13 07:02:17;;;;;;;3.30;2.35;;;;;;;;;;5030320;28;20083;-67
2022/08/13 07:04:47;;;;;;;3.20;2.40;;;;;;;;;;5050367;28;20021;-68
2022/08/13 07:07:16;;;;;;;4.63;2.80;;;;;;;;;;5042773;28;20411;-67
2022/08/13 07:09:43;;;;;;;4.63;3.00;;;;;;;;;;5026206;28;20037;-67
2022/08/13 07:12:12;;;;;;;3.15;2.40;;;;;;;;;;5025025;28;20894;-67
2022/08/13 07:14:43;;;;;;;2.97;2.47;;;;;;;;;;5025686;28;20128;-67
2022/08/13 07:17:10;;;;;;;6.45;2.60;;;;;;;;;;5026816;28;20490;-67
2022/08/13 07:19:37;;;;;;;3.13;2.08;;;;;;;;;;5027564;28;20029;-67
2022/08/13 07:22:03;;;;;;;3.45;2.58;;;;;;;;;;5024573;28;20095;-67
2022/08/13 07:24:28;;;;;;;3.95;2.83;;;;;;;;;;5016612;28;20048;-68
2022/08/13 07:26:59;;;;;;;2.33;2.05;;;;;;;;;;5030449;28;20458;-68
2022/08/13 07:29:26;;;;;;;3.70;2.17;;;;;;;;;;5029042;28;20029;-68
2022/08/13 07:31:53;;;;;;;2.75;2.20;;;;;;;;;;5030535;28;20091;-68
2022/08/13 07:34:19;;;;;;;2.75;2.47;;;;;;;;;;5024034;28;20073;-67
2022/08/13 07:36:44;;;;;;;2.65;2.00;;;;;;;;;;5021716;28;20536;-68
2022/08/13 07:39:12;;;;;;;2.90;2.22;;;;;;;;;;5022333;28;20044;-68
2022/08/13 07:41:45;;;;;;;3.80;2.15;;;;;;;;;;5027969;28;20033;-67
2022/08/13 07:44:12;;;;;;;5.22;2.50;;;;;;;;;;5021368;28;20540;-67
2022/08/13 07:46:40;;;;;;;2.47;1.92;;;;;;;;;;5023656;28;20113;-68
2022/08/13 07:49:07;;;;;;;3.35;2.13;;;;;;;;;;5019180;28;20049;-67
2022/08/13 07:51:32;;;;;;;2.33;2.13;;;;;;;;;;5028673;28;20091;-68
2022/08/13 07:53:57;;;;;;;7.43;2.47;;;;;;;;;;5029534;28;20025;-68
2022/08/13 07:56:31;;;;;;;5.30;2.30;;;;;;;;;;5027775;28;20119;-68
2022/08/13 07:59:00;;;;;;;2.90;2.15;;;;;;;;;;5046144;28;20028;-68
2022/08/13 08:01:27;;;;;;;4.60;2.30;;;;;;;;;;5035534;28;20626;-68
2022/08/13 08:03:56;;;;;;;2.13;1.90;;;;;;;;;;5035414;28;20044;-68
2022/08/13 08:06:22;;;;;;;2.55;2.20;;;;;;;;;;5030423;28;20091;-65
2022/08/13 08:08:52;;;;;;;2.38;1.90;;;;;;;;;;5023211;28;20267;-65
2022/08/13 08:14:03;;;;;;;2.38;2.00;;;;;;;;;;5014149;28;20041;-65
2022/08/13 08:16:35;;;;;;;3.08;1.95;;;;;;;;;;5032778;28;20519;-65
2022/08/13 08:19:01;;;;;;;2.55;2.05;;;;;;;;;;5026303;28;20036;-65
2022/08/13 08:21:28;;;;;;;2.63;1.85;;;;;;;;;;5021559;28;20435;-65
2022/08/13 08:23:59;;;;;;;2.42;2.00;;;;;;;;;;5034316;28;20034;-65
2022/08/13 08:26:30;;;;;;;2.42;1.92;;;;;;;;;;5033384;28;20033;-65
2022/08/13 08:28:56;;;;;;;2.40;1.88;;;;;;;;;;5049302;28;20083;-65
2022/08/13 08:31:23;;;;;;;2.03;1.50;;;;;;;;;;5025983;28;20050;-65
2022/08/13 08:33:50;;;;;;;2.47;2.00;;;;;;;;;;5014710;28;20040;-65
2022/08/13 08:36:15;;;;;;;2.55;1.83;;;;;;;;;;5029485;28;20533;-65
2022/08/13 08:44:24;;;;;;;2.35;1.85;;;;;;;;;;5026312;28;20040;-65
2022/08/13 08:46:52;;;;;;;2.50;1.85;;;;;;;;;;5027813;28;20057;-65
2022/08/13 08:49:21;;;;;;;2.33;1.75;;;;;;;;;;5029160;28;20049;-65
2022/08/13 08:51:49;;;;;;;1.95;1.75;;;;;;;;;;5017455;28;20049;-64
2022/08/13 08:54:14;;;;;;;2.10;1.88;;;;;;;;;;5023235;28;20033;-65
2022/08/13 08:56:41;;;;;;;1.90;1.75;;;;;;;;;;5021264;28;20118;-66
2022/08/13 08:59:09;;;;;;;2.67;1.65;;;;;;;;;;5026250;28;20032;-65
2022/08/13 09:01:35;;;;;;;4.57;1.65;;;;;;;;;;5027454;28;20022;-66
2022/08/13 09:04:05;;;;;;;3.40;1.90;;;;;;;;;;5024866;28;20049;-66
2022/08/13 09:06:31;;;;;;;2.65;1.70;;;;;;;;;;5024647;28;20055;-66
2022/08/13 09:08:58;;;;;;;2.95;1.80;;;;;;;;;;5028336;28;20037;-66
2022/08/13 09:11:24;;;;;;;6.68;1.90;;;;;;;;;;5033217;28;20026;-66
2022/08/13 09:13:52;;;;;;;3.50;1.85;;;;;;;;;;5028593;28;20510;-66
2022/08/13 09:16:18;;;;;;;4.22;1.90;;;;;;;;;;5027361;28;20095;-66
2022/08/13 09:18:44;;;;;;;2.30;1.80;;;;;;;;;;5026968;28;20042;-66
2022/08/13 09:21:09;;;;;;;2.10;1.90;;;;;;;;;;5027190;28;20419;-66
2022/08/13 09:23:35;;;;;;;3.33;2.03;;;;;;;;;;5025380;28;20533;-67
2022/08/13 09:26:04;;;;;;;2.15;1.80;;;;;;;;;;5026779;28;20041;-66
2022/08/13 09:28:30;;;;;;;3.20;1.70;;;;;;;;;;5019945;28;20037;-66
2022/08/13 09:30:55;;;;;;;1.83;1.63;;;;;;;;;;5027243;28;20120;-66
2022/08/13 09:33:23;;;;;;;2.00;1.70;;;;;;;;;;5027116;28;20120;-66
2022/08/13 09:35:50;;;;;;;1.90;1.80;;;;;;;;;;5025448;28;20084;-66
2022/08/13 09:38:16;;;;;;;2.33;1.90;;;;;;;;;;5026740;28;20087;-66
2022/08/13 09:40:50;;;;;;;2.25;2.03;;;;;;;;;;5033551;28;20406;-66
2022/08/13 09:43:22;;;;;;;3.58;1.65;;;;;;;;;;5029665;28;20065;-66
2022/08/13 09:45:48;;;;;;;2.03;1.83;;;;;;;;;;5026499;28;20037;-66
2022/08/13 09:48:14;;;;;;;2.35;1.88;;;;;;;;;;5020981;28;20052;-65
2022/08/13 09:50:41;;;;;;;1.83;1.60;;;;;;;;;;5014202;28;20049;-65
2022/08/13 09:53:07;;;;;;;1.80;1.70;;;;;;;;;;5015056;28;20047;-65
2022/08/13 09:55:33;;;;;;;3.33;1.90;;;;;;;;;;5018271;28;20053;-66
2022/08/13 09:58:00;;;;;;;1.90;1.52;;;;;;;;;;5025521;28;20100;-66
2022/08/13 10:00:27;;;;;;;3.83;1.85;;;;;;;;;;5025587;28;20057;-66
2022/08/13 10:02:59;;;;;;;2.15;1.88;;;;;;;;;;5027161;28;20038;-66
2022/08/13 10:05:26;;;;;;;2.33;1.70;;;;;;;;;;5022925;28;20096;-66
2022/08/13 10:07:53;;;;;;;2.60;1.60;;;;;;;;;;5021609;28;20033;-66
2022/08/13 10:10:19;;;;;;;2.47;1.80;;;;;;;;;;5027229;28;20112;-66
2022/08/13 10:12:45;;;;;;;2.22;1.63;;;;;;;;;;5026649;28;20037;-67
2022/08/13 10:15:12;;;;;;;2.35;1.70;;;;;;;;;;5027265;28;20056;-66
2022/08/13 10:17:46;;;;;;;2.08;1.50;;;;;;;;;;5025932;28;20554;-66
2022/08/13 10:20:13;;;;;;;1.75;1.58;;;;;;;;;;5031640;28;20033;-66
2022/08/13 10:22:38;;;;;;;2.25;1.90;;;;;;;;;;5026650;28;21246;-66
2022/08/13 10:25:04;;;;;;;1.70;1.60;;;;;;;;;;5022232;28;20498;-66
2022/08/13 10:27:29;;;;;;;3.35;2.00;;;;;;;;;;5028896;28;20045;-66
2022/08/13 10:29:55;;;;;;;2.00;1.80;;;;;;;;;;5031342;28;20038;-66
2022/08/13 10:32:20;;;;;;;5.20;1.60;;;;;;;;;;5031564;28;20627;-66
2022/08/13 10:34:46;;;;;;;1.70;1.55;;;;;;;;;;5030381;28;20033;-66
2022/08/13 10:37:12;;;;;;;1.95;1.75;;;;;;;;;;5029756;28;20041;-66
2022/08/13 10:39:38;;;;;;;1.88;1.77;;;;;;;;;;5031031;28;20033;-66
2022/08/13 10:42:03;;;;;;;1.92;1.83;;;;;;;;;;5030131;28;20640;-64
2022/08/13 10:44:29;;;;;;;3.55;2.55;;;;;;;;;;5033570;28;20060;-66
2022/08/13 10:46:54;;;;;;;1.88;1.70;;;;;;;;;;5030960;28;20056;-66
2022/08/13 10:49:20;;;;;;;2.58;1.70;;;;;;;;;;5030197;28;20041;-66
2022/08/13 10:51:45;;;;;;;4.00;1.70;;;;;;;;;;5029483;28;20629;-66
2022/08/13 10:54:11;;;;;;;2.28;1.75;;;;;;;;;;5023107;28;20571;-66
2022/08/13 10:56:37;;;;;;;1.85;1.67;;;;;;;;;;5027137;28;20049;-66
2022/08/13 10:59:04;;;;;;;1.80;1.52;;;;;;;;;;5030742;28;20373;-66
2022/08/13 11:01:30;;;;;;;1.83;1.60;;;;;;;;;;5017647;28;20411;-66
2022/08/13 11:04:01;;;;;;;2.05;1.80;;;;;;;;;;5015307;28;20029;-66
2022/08/13 11:06:27;;;;;;;1.60;1.50;;;;;;;;;;5028243;28;20036;-66
2022/08/13 11:08:57;;;;;;;3.30;1.40;;;;;;;;;;5028866;28;20523;-66
2022/08/13 11:11:24;;;;;;;2.20;1.35;;;;;;;;;;5025265;28;20025;-66
2022/08/13 11:13:49;;;;;;;2.38;1.70;;;;;;;;;;5005247;28;20049;-66
2022/08/13 11:19:12;;;;;;;3.03;1.50;;;;;;;;;;5023243;28;20515;-66
2022/08/13 11:21:38;;;;;;;2.10;1.60;;;;;;;;;;5025894;28;20013;-66
2022/08/13 11:24:03;;;;;;;1.85;1.65;;;;;;;;;;5021213;28;20040;-66
2022/08/13 11:26:29;;;;;;;2.67;1.30;;;;;;;;;;5027691;28;20444;-66
2022/08/13 11:28:54;;;;;;;2.33;1.42;;;;;;;;;;5029016;28;20045;-67
2022/08/13 11:31:19;;;;;;;4.65;1.63;;;;;;;;;;5017622;28;20092;-67
2022/08/13 11:33:45;;;;;;;2.10;1.60;;;;;;;;;;5024716;28;20028;-66
2022/08/13 11:36:10;;;;;;;4.55;1.80;;;;;;;;;;5030730;28;20014;-66
2022/08/13 11:38:36;;;;;;;1.70;1.60;;;;;;;;;;5013337;28;20539;-66
2022/08/13 11:41:01;;;;;;;1.60;1.50;;;;;;;;;;5011884;28;20072;-66
2022/08/13 11:43:29;;;;;;;3.15;1.70;;;;;;;;;;5021548;28;20892;-66
2022/08/13 11:45:56;;;;;;;1.98;1.55;;;;;;;;;;5023235;28;20025;-66
2022/08/13 11:48:21;;;;;;;4.88;1.70;;;;;;;;;;5027861;28;20462;-67
2022/08/13 11:50:47;;;;;;;3.53;1.58;;;;;;;;;;5029687;28;20674;-67
2022/08/13 11:53:13;;;;;;;2.25;1.80;;;;;;;;;;5011773;28;20041;-66
2022/08/13 11:55:38;;;;;;;2.35;1.63;;;;;;;;;;4993397;28;20132;-66
2022/08/13 11:58:06;;;;;;;4.35;1.80;;;;;;;;;;5029142;28;20045;-66
2022/08/13 12:00:33;;;;;;;2.65;1.73;;;;;;;;;;5014029;28;20057;-66
2022/08/13 12:02:58;;;;;;;3.75;1.70;;;;;;;;;;5022803;28;20042;-67
2022/08/13 12:05:24;;;;;;;2.78;1.30;;;;;;;;;;5010199;28;20078;-66
2022/08/13 12:07:50;;;;;;;2.03;1.60;;;;;;;;;;5024520;28;20099;-67
2022/08/13 12:10:16;;;;;;;3.47;1.60;;;;;;;;;;5028136;28;20128;-66
2022/08/13 12:12:42;;;;;;;2.08;1.63;;;;;;;;;;5022538;28;20025;-67
2022/08/13 12:15:08;;;;;;;2.00;1.70;;;;;;;;;;5021786;28;20138;-66
2022/08/13 12:17:34;;;;;;;1.70;1.60;;;;;;;;;;5023470;28;20069;-66
2022/08/13 12:19:59;;;;;;;1.83;1.48;;;;;;;;;;5021432;28;20076;-66
2022/08/13 12:22:24;;;;;;;1.80;1.52;;;;;;;;;;5023500;28;20057;-66
2022/08/13 12:24:51;;;;;;;1.70;1.60;;;;;;;;;;5023411;28;20075;-66
2022/08/13 12:27:17;;;;;;;6.68;1.88;;;;;;;;;;5015661;28;20061;-66
2022/08/13 12:29:42;;;;;;;2.13;1.52;;;;;;;;;;5020458;28;20046;-67
2022/08/13 12:32:08;;;;;;;3.08;1.48;;;;;;;;;;5025198;28;20041;-66
2022/08/13 12:34:36;;;;;;;2.47;1.60;;;;;;;;;;5024109;28;20122;-66
2022/08/13 12:37:01;;;;;;;4.55;1.50;;;;;;;;;;5023648;28;20118;-66
2022/08/13 12:39:27;;;;;;;3.42;1.60;;;;;;;;;;5026447;28;20025;-66
2022/08/13 12:41:52;;;;;;;3.25;1.50;;;;;;;;;;5020539;28;20041;-66
2022/08/13 12:44:17;;;;;;;2.05;1.65;;;;;;;;;;5020611;28;20045;-66
2022/08/13 12:46:43;;;;;;;1.85;1.73;;;;;;;;;;5024749;28;20059;-66
2022/08/13 12:49:08;;;;;;;1.40;1.30;;;;;;;;;;5022401;28;20022;-66
2022/08/13 12:51:33;;;;;;;1.52;1.42;;;;;;;;;;5024427;28;20376;-66
2022/08/13 12:53:59;;;;;;;3.05;1.45;;;;;;;;;;5019961;28;20060;-66
2022/08/13 12:56:24;;;;;;;3.10;1.50;;;;;;;;;;5015412;28;20053;-67
2022/08/13 12:58:50;;;;;;;3.78;1.70;;;;;;;;;;5022070;28;20049;-66
2022/08/13 13:01:15;;;;;;;2.15;1.73;;;;;;;;;;5024315;28;20414;-66
2022/08/13 13:03:40;;;;;;;2.28;1.73;;;;;;;;;;5023454;28;20099;-67
2022/08/13 13:06:06;;;;;;;1.88;1.50;;;;;;;;;;5023111;28;20040;-66
2022/08/13 13:08:32;;;;;;;3.88;1.60;;;;;;;;;;5021667;28;20419;-66
2022/08/13 13:11:02;;;;;;;2.13;1.88;;;;;;;;;;5010647;28;20351;-66
2022/08/13 13:13:28;;;;;;;1.67;1.58;;;;;;;;;;5020756;28;20502;-66
2022/08/13 13:15:54;;;;;;;1.60;1.50;;;;;;;;;;5018773;28;20033;-67
2022/08/13 13:18:25;;;;;;;2.00;1.70;;;;;;;;;;5008601;28;20054;-66
2022/08/13 13:20:51;;;;;;;3.00;1.77;;;;;;;;;;5008101;28;20750;-66
2022/08/13 13:23:19;;;;;;;1.70;1.60;;;;;;;;;;5020404;28;20045;-66
2022/08/13 13:25:46;;;;;;;1.50;1.40;;;;;;;;;;5021091;28;20045;-66
2022/08/13 13:28:23;;;;;;;1.65;1.50;;;;;;;;;;5023785;28;20577;-66
2022/08/13 13:30:50;;;;;;;1.60;1.50;;;;;;;;;;5048521;28;20025;-67
2022/08/13 13:33:16;;;;;;;2.00;1.58;;;;;;;;;;5030480;28;20065;-66
2022/08/13 13:35:43;;;;;;;1.85;1.50;;;;;;;;;;5021289;28;20116;-67
2022/08/13 13:38:10;;;;;;;1.88;1.40;;;;;;;;;;5023830;28;20084;-66
2022/08/13 13:40:39;;;;;;;2.40;1.52;;;;;;;;;;5026969;28;20427;-67
2022/08/13 13:43:05;;;;;;;2.53;1.58;;;;;;;;;;5027747;28;20029;-67
2022/08/13 13:45:31;;;;;;;6.22;2.33;;;;;;;;;;5028405;28;20022;-67
2022/08/13 13:47:59;;;;;;;2.40;1.70;;;;;;;;;;5025337;28;20034;-67
2022/08/13 13:50:24;;;;;;;2.20;1.77;;;;;;;;;;5028433;28;20044;-67
2022/08/13 13:52:50;;;;;;;11.95;1.60;;;;;;;;;;5025315;28;20037;-66
2022/08/13 13:55:16;;;;;;;1.70;1.30;;;;;;;;;;5022768;28;20052;-66
2022/08/13 13:57:41;;;;;;;1.40;1.30;;;;;;;;;;5023539;28;20028;-66
2022/08/13 14:00:11;;;;;;;2.75;1.40;;;;;;;;;;5018762;28;20042;-66
2022/08/13 14:02:50;;;;;;;1.50;1.40;;;;;;;;;;5021511;28;20115;-67
2022/08/13 14:05:16;;;;;;;3.30;1.58;;;;;;;;;;5023936;28;20106;-67
2022/08/13 14:07:52;;;;;;;3.10;1.40;;;;;;;;;;5027508;28;20523;-67
2022/08/13 14:10:18;;;;;;;1.50;1.40;;;;;;;;;;5027802;28;20048;-66
2022/08/13 14:12:46;;;;;;;2.40;1.60;;;;;;;;;;5024875;28;20748;-67
2022/08/13 14:15:11;;;;;;;4.03;1.50;;;;;;;;;;5022301;28;20034;-66
2022/08/13 14:17:37;;;;;;;3.45;1.50;;;;;;;;;;5024082;28;20111;-66
2022/08/13 14:20:03;;;;;;;1.73;1.58;;;;;;;;;;5018936;28;20045;-66
2022/08/13 14:22:29;;;;;;;1.88;1.60;;;;;;;;;;5022220;28;20037;-66
2022/08/13 14:24:56;;;;;;;1.70;1.60;;;;;;;;;;5023143;28;20120;-66
2022/08/13 14:27:22;;;;;;;2.00;1.80;;;;;;;;;;5018505;28;20041;-66
2022/08/13 14:29:48;;;;;;;1.60;1.50;;;;;;;;;;5020024;28;20087;-67
2022/08/13 14:32:13;;;;;;;1.50;1.40;;;;;;;;;;5022935;28;20033;-66
2022/08/13 14:34:39;;;;;;;3.08;1.55;;;;;;;;;;5022038;28;20037;-66
2022/08/13 14:37:04;;;;;;;2.08;1.67;;;;;;;;;;5019686;28;20394;-66
2022/08/13 14:39:30;;;;;;;1.70;1.60;;;;;;;;;;5021915;28;20025;-67
2022/08/13 14:41:55;;;;;;;2.40;1.80;;;;;;;;;;5020334;28;20068;-66
2022/08/13 14:44:21;;;;;;;1.58;1.48;;;;;;;;;;5019101;28;20263;-66
2022/08/13 14:46:46;;;;;;;1.58;1.48;;;;;;;;;;5022625;28;20087;-67
2022/08/13 14:49:12;;;;;;;8.93;1.95;;;;;;;;;;5023300;28;20025;-66
2022/08/13 14:51:39;;;;;;;1.95;1.50;;;;;;;;;;5020364;28;20098;-66
2022/08/13 14:54:05;;;;;;;1.80;1.70;;;;;;;;;;5022073;28;20034;-66
2022/08/13 14:56:30;;;;;;;3.97;1.90;;;;;;;;;;5021086;28;20495;-66
2022/08/13 14:58:55;;;;;;;1.90;1.60;;;;;;;;;;5019460;28;20042;-66
2022/08/13 15:01:21;;;;;;;1.83;1.73;;;;;;;;;;5021142;28;20045;-66
2022/08/13 15:03:53;;;;;;;3.22;2.00;;;;;;;;;;5022202;28;20029;-66
2022/08/13 15:06:20;;;;;;;4.93;1.60;;;;;;;;;;5022464;28;20036;-67
2022/08/13 15:08:47;;;;;;;2.03;1.80;;;;;;;;;;5020862;28;20060;-66